Time;durP1;ratioP1;P1;durP2;ratioP2;P2;SDS_P1;SDS_P2;PMS_P1;PMS_P2;Temp;Humidity;BMP_temperature;BMP_pressure;BME280_temperature;BME280_humidity;BME280_pressure;Samples;Min_cycle;Max_cycle;Signal;HPM_P1;HPM_P2
2023/01/08 00:00:49;;;;;;;100.33;22.67;;;4.90;99.90;;;;;;6422091;23;20353;-62
2023/01/08 00:03:25;;;;;;;90.22;19.17;;;4.70;99.90;;;;;;6445188;22;20230;-62
2023/01/08 00:06:05;;;;;;;111.85;22.67;;;4.70;99.90;;;;;;6404454;22;20019;-62
2023/01/08 00:08:45;;;;;;;98.70;21.38;;;4.70;99.90;;;;;;6477758;22;20007;-62
2023/01/08 00:11:18;;;;;;;62.97;20.77;;;4.80;99.90;;;;;;6477656;22;20452;-62
2023/01/08 00:13:56;;;;;;;78.32;21.35;;;4.80;99.90;;;;;;6451812;22;20000;-62
2023/01/08 00:16:27;;;;;;;84.78;21.83;;;4.80;99.90;;;;;;6452335;22;20004;-62
2023/01/08 00:18:58;;;;;;;65.65;19.35;;;4.80;99.90;;;;;;6477318;22;19996;-61
2023/01/08 00:21:32;;;;;;;81.00;21.17;;;4.70;99.90;;;;;;6473825;22;20538;-61
2023/01/08 00:24:08;;;;;;;113.03;21.15;;;4.70;99.90;;;;;;6478113;22;20018;-63
2023/01/08 00:26:42;;;;;;;69.53;19.17;;;4.70;99.90;;;;;;6454098;23;20047;-61
2023/01/08 00:29:21;;;;;;;95.82;21.80;;;4.70;99.90;;;;;;6452352;23;20007;-62
2023/01/08 00:31:53;;;;;;;109.85;20.95;;;4.60;99.90;;;;;;6452745;23;20000;-62
2023/01/08 00:34:25;;;;;;;81.00;22.90;;;4.70;99.90;;;;;;6477086;22;20006;-62
2023/01/08 00:36:57;;;;;;;93.70;20.00;;;4.80;99.90;;;;;;6449527;22;20006;-61
2023/01/08 00:39:28;;;;;;;77.15;20.60;;;4.80;99.90;;;;;;6452359;23;19998;-62
2023/01/08 00:42:07;;;;;;;79.68;21.17;;;4.80;99.90;;;;;;6454067;22;20052;-61
2023/01/08 00:44:41;;;;;;;56.28;18.38;;;4.80;99.90;;;;;;6454664;23;20210;-62
2023/01/08 00:47:14;;;;;;;64.35;19.27;;;4.50;99.90;;;;;;6477742;22;19996;-62
2023/01/08 00:49:49;;;;;;;67.25;19.83;;;4.40;99.90;;;;;;6453394;23;20006;-62
2023/01/08 00:52:23;;;;;;;79.78;19.83;;;4.50;99.90;;;;;;6448712;23;19996;-62
2023/01/08 00:54:54;;;;;;;62.53;18.77;;;4.50;99.90;;;;;;6453248;23;20071;-61
2023/01/08 00:57:28;;;;;;;55.35;18.77;;;4.40;99.90;;;;;;6451102;22;20507;-62
2023/01/08 00:59:59;;;;;;;79.75;19.65;;;4.40;99.90;;;;;;6451921;22;20014;-62
2023/01/08 01:02:31;;;;;;;89.65;19.38;;;4.40;99.90;;;;;;6254837;23;20015;-72
2023/01/08 01:05:03;;;;;;;65.65;19.35;;;4.30;99.90;;;;;;6223860;23;20011;-68
2023/01/08 01:07:41;;;;;;;90.63;19.95;;;4.30;99.90;;;;;;6256544;23;20005;-71
2023/01/08 01:10:15;;;;;;;65.22;19.60;;;4.30;99.90;;;;;;6234046;23;19992;-74
2023/01/08 01:12:46;;;;;;;69.60;18.40;;;4.30;99.90;;;;;;6209078;23;19995;-73
2023/01/08 01:15:20;;;;;;;81.82;17.40;;;4.20;99.90;;;;;;6234161;23;20326;-70
2023/01/08 01:17:52;;;;;;;126.05;19.77;;;4.00;99.90;;;;;;6256841;23;20007;-72
2023/01/08 01:20:26;;;;;;;78.30;19.00;;;4.10;99.90;;;;;;6232729;23;19995;-70
2023/01/08 01:23:00;;;;;;;95.47;19.08;;;4.20;99.90;;;;;;6231847;23;20003;-70
2023/01/08 01:25:53;;;;;;;83.95;19.17;;;4.20;99.90;;;;;;6232765;23;20031;-72
2023/01/08 01:28:27;;;;;;;105.00;19.73;;;4.20;99.90;;;;;;6234943;23;20132;-72
2023/01/08 01:31:02;;;;;;;104.30;19.75;;;4.10;99.90;;;;;;6329444;23;20007;-70
2023/01/08 01:33:43;;;;;;;57.72;19.58;;;4.00;99.90;;;;;;6232023;23;20511;-70
2023/01/08 01:36:21;;;;;;;103.45;21.15;;;4.10;99.90;;;;;;6234934;23;20015;-70
2023/01/08 01:38:56;;;;;;;68.63;19.35;;;4.10;99.90;;;;;;6235259;23;20050;-71
2023/01/08 01:41:35;;;;;;;66.60;18.42;;;4.10;99.90;;;;;;6256248;23;19999;-69
2023/01/08 01:44:44;;;;;;;57.28;18.73;;;4.20;99.90;;;;;;6234710;23;20611;-70
2023/01/08 01:47:37;;;;;;;88.43;20.80;;;4.10;99.90;;;;;;6266959;23;20009;-72
2023/01/08 01:50:26;;;;;;;87.32;17.80;;;4.10;99.90;;;;;;6207769;23;20006;-70
2023/01/08 01:53:00;;;;;;;53.03;19.75;;;4.20;99.90;;;;;;6231735;23;20003;-70
2023/01/08 01:55:36;;;;;;;54.42;17.98;;;4.20;99.90;;;;;;6208889;23;20056;-68
2023/01/08 01:58:25;;;;;;;41.08;17.20;;;4.10;99.90;;;;;;6332377;23;20548;-68
2023/01/08 02:01:02;;;;;;;53.65;20.20;;;4.20;99.90;;;;;;6255172;23;20011;-69
2023/01/08 02:03:38;;;;;;;35.80;17.95;;;4.20;99.90;;;;;;6231106;23;20007;-69
2023/01/08 02:06:26;;;;;;;50.67;17.48;;;4.20;99.90;;;;;;6345137;23;20344;-70
2023/01/08 02:09:12;;;;;;;52.83;17.08;;;4.20;99.90;;;;;;6386848;23;20001;-71
2023/01/08 02:15:03;;;;;;;56.90;16.40;;;4.10;99.90;;;;;;6411069;23;20003;-69
2023/01/08 02:18:02;;;;;;;72.75;18.95;;;4.10;99.90;;;;;;6386592;23;20005;-70
2023/01/08 02:20:53;;;;;;;68.22;17.63;;;4.10;99.90;;;;;;6409482;23;20016;-72
2023/01/08 02:23:45;;;;;;;79.43;18.20;;;4.10;99.90;;;;;;6385735;23;20505;-69
2023/01/08 02:26:31;;;;;;;42.92;16.85;;;4.10;99.90;;;;;;6412132;23;20213;-72
2023/01/08 02:29:13;;;;;;;111.93;20.17;;;4.10;99.90;;;;;;6387994;23;19993;-70
2023/01/08 02:31:48;;;;;;;53.33;17.70;;;4.20;99.90;;;;;;6388039;23;20048;-71
2023/01/08 02:34:21;;;;;;;49.10;18.40;;;4.20;99.90;;;;;;6389011;23;20060;-72
2023/01/08 02:36:54;;;;;;;42.30;18.73;;;4.30;99.90;;;;;;6408353;23;20011;-72
2023/01/08 02:39:35;;;;;;;67.90;17.77;;;4.20;99.90;;;;;;6388155;23;19997;-68
2023/01/08 02:42:31;;;;;;;41.88;18.17;;;4.30;99.90;;;;;;6385490;23;20007;-70
2023/01/08 02:45:28;;;;;;;60.20;18.15;;;4.10;99.90;;;;;;6411043;23;20000;-72
2023/01/08 02:48:11;;;;;;;45.90;17.13;;;4.10;99.90;;;;;;6370769;23;20000;-73
2023/01/08 02:50:56;;;;;;;55.95;16.95;;;4.10;99.90;;;;;;6408567;23;20284;-69
2023/01/08 02:53:36;;;;;;;54.33;18.73;;;4.10;99.90;;;;;;6385166;23;20503;-72
2023/01/08 02:56:19;;;;;;;42.80;17.23;;;4.10;99.90;;;;;;6392442;23;20015;-71
2023/01/08 02:58:54;;;;;;;42.28;16.55;;;4.10;99.90;;;;;;6385940;23;20001;-71
2023/01/08 03:01:32;;;;;;;50.13;18.25;;;4.20;99.90;;;;;;6332123;23;1237303;-70
2023/01/08 03:04:08;;;;;;;56.00;17.70;;;4.20;99.90;;;;;;6399615;23;20388;-70
2023/01/08 03:06:42;;;;;;;39.38;16.67;;;4.30;99.90;;;;;;6216055;23;20028;-70
2023/01/08 03:09:17;;;;;;;57.20;19.70;;;4.20;99.90;;;;;;6233786;23;20058;-75
2023/01/08 03:12:11;;;;;;;74.13;17.77;;;4.20;99.90;;;;;;6231506;23;20007;-70
2023/01/08 03:15:02;;;;;;;39.80;17.73;;;4.00;99.90;;;;;;6255510;23;20006;-68
2023/01/08 03:17:45;;;;;;;78.75;18.05;;;4.10;99.90;;;;;;6257851;23;20419;-71
2023/01/08 03:20:23;;;;;;;53.75;17.88;;;4.10;99.90;;;;;;6228278;23;20219;-71
2023/01/08 03:22:57;;;;;;;70.05;17.67;;;4.10;99.90;;;;;;6230671;23;20008;-68
2023/01/08 03:25:32;;;;;;;43.75;17.98;;;4.20;99.90;;;;;;6209232;23;19996;-72
2023/01/08 03:28:06;;;;;;;29.98;15.95;;;4.10;99.90;;;;;;6234129;23;20010;-70
2023/01/08 03:30:42;;;;;;;68.15;18.55;;;4.10;99.90;;;;;;6235031;23;19995;-69
2023/01/08 03:33:15;;;;;;;41.83;17.70;;;4.10;99.90;;;;;;6257330;23;20175;-70
2023/01/08 03:35:50;;;;;;;34.00;16.42;;;4.10;99.90;;;;;;6256012;23;20530;-70
2023/01/08 03:38:35;;;;;;;69.50;17.60;;;4.20;99.90;;;;;;6257738;23;20664;-71
2023/01/08 03:41:11;;;;;;;104.03;17.70;;;4.30;99.90;;;;;;6236074;23;20059;-70
2023/01/08 03:43:45;;;;;;;54.88;18.13;;;4.20;99.90;;;;;;6233415;23;20473;-69
2023/01/08 03:46:27;;;;;;;37.20;17.05;;;4.30;99.90;;;;;;6233229;23;20003;-71
2023/01/08 03:49:02;;;;;;;57.25;17.05;;;4.30;99.90;;;;;;6257430;23;20207;-70
2023/01/08 03:51:45;;;;;;;47.78;18.02;;;4.20;99.90;;;;;;6231941;23;20533;-69
2023/01/08 03:54:20;;;;;;;52.72;18.52;;;4.10;99.90;;;;;;6234780;23;20004;-73
2023/01/08 03:56:51;;;;;;;42.17;17.33;;;4.20;99.90;;;;;;6257728;23;20006;-71
2023/01/08 03:59:25;;;;;;;40.55;16.48;;;4.20;99.90;;;;;;6235063;23;19999;-71
2023/01/08 04:01:56;;;;;;;55.10;19.35;;;4.20;99.90;;;;;;6234609;23;20211;-69
2023/01/08 04:04:27;;;;;;;60.10;17.85;;;4.20;99.90;;;;;;6240757;23;20004;-70
2023/01/08 04:06:59;;;;;;;52.97;19.17;;;4.30;99.90;;;;;;6361505;23;20004;-70
2023/01/08 04:09:32;;;;;;;39.13;18.08;;;4.10;99.90;;;;;;6414636;23;20005;-71
2023/01/08 04:12:06;;;;;;;91.82;19.10;;;4.20;99.90;;;;;;6414586;23;20003;-71
2023/01/08 04:14:37;;;;;;;59.15;18.13;;;4.20;99.90;;;;;;6413896;23;19999;-69
2023/01/08 04:17:12;;;;;;;57.47;20.00;;;4.20;99.90;;;;;;6389591;23;20011;-69
2023/01/08 04:19:48;;;;;;;65.68;18.50;;;4.20;99.90;;;;;;6414147;23;20003;-69
2023/01/08 04:22:19;;;;;;;54.67;18.20;;;4.10;99.90;;;;;;6412346;23;20007;-70
2023/01/08 04:24:52;;;;;;;46.60;17.50;;;4.20;99.90;;;;;;6389110;23;20001;-70
2023/01/08 04:27:26;;;;;;;54.85;18.63;;;4.10;99.90;;;;;;6390830;23;20001;-71
2023/01/08 04:29:58;;;;;;;55.90;18.98;;;4.20;99.90;;;;;;6413763;23;19997;-71
2023/01/08 04:32:32;;;;;;;57.47;18.95;;;4.20;99.90;;;;;;6364036;23;20005;-70
2023/01/08 04:35:04;;;;;;;86.75;18.60;;;4.20;99.90;;;;;;6390517;23;20551;-70
2023/01/08 04:37:35;;;;;;;42.97;17.60;;;4.10;99.90;;;;;;6363211;23;20013;-71
2023/01/08 04:40:09;;;;;;;59.35;18.35;;;4.10;99.90;;;;;;6390821;23;20076;-71
2023/01/08 04:42:46;;;;;;;56.35;18.30;;;4.20;99.90;;;;;;6389251;23;20478;-72
2023/01/08 04:45:18;;;;;;;54.22;18.80;;;4.20;99.90;;;;;;6413985;23;20001;-71
2023/01/08 04:48:02;;;;;;;49.42;18.38;;;4.20;99.90;;;;;;6388594;23;20011;-73
2023/01/08 04:50:36;;;;;;;93.80;17.38;;;4.20;99.90;;;;;;6411812;23;19997;-75
2023/01/08 04:53:07;;;;;;;50.70;16.73;;;4.20;99.90;;;;;;6364296;23;20012;-70
2023/01/08 04:55:41;;;;;;;73.80;19.02;;;4.20;99.90;;;;;;6386882;23;19997;-73
2023/01/08 04:58:15;;;;;;;111.78;19.27;;;4.20;99.90;;;;;;6387285;23;20023;-74
2023/01/08 05:00:48;;;;;;;46.42;17.40;;;4.20;99.90;;;;;;6413804;23;19993;-73
2023/01/08 05:03:20;;;;;;;66.38;17.92;;;4.20;99.90;;;;;;6423278;23;20292;-73
2023/01/08 05:05:51;;;;;;;37.35;17.33;;;4.20;99.90;;;;;;6371130;23;20020;-71
2023/01/08 05:08:22;;;;;;;42.10;17.13;;;4.10;99.90;;;;;;6383474;23;20069;-73
2023/01/08 05:10:57;;;;;;;75.47;16.17;;;3.90;99.90;;;;;;6388144;23;20024;-74
2023/01/08 05:13:28;;;;;;;46.05;16.20;;;3.90;99.90;;;;;;6413492;23;19993;-72
2023/01/08 05:16:06;;;;;;;40.90;16.88;;;3.80;99.90;;;;;;6413631;23;20005;-70
2023/01/08 05:18:43;;;;;;;47.95;18.35;;;3.80;99.90;;;;;;6400249;23;20004;-71
2023/01/08 05:21:14;;;;;;;42.35;17.85;;;3.90;99.90;;;;;;6388436;23;20044;-71
2023/01/08 05:23:48;;;;;;;49.35;18.40;;;3.90;99.90;;;;;;6413255;23;19997;-72
2023/01/08 05:26:24;;;;;;;74.65;19.63;;;3.90;99.90;;;;;;6390594;23;20001;-70
2023/01/08 05:28:58;;;;;;;62.13;19.27;;;4.00;99.90;;;;;;6387660;23;20068;-71
2023/01/08 05:31:32;;;;;;;48.40;17.10;;;3.90;99.90;;;;;;6390072;23;20007;-71
2023/01/08 05:34:08;;;;;;;45.28;16.70;;;3.80;99.90;;;;;;6387567;23;20323;-71
2023/01/08 05:36:40;;;;;;;47.15;18.23;;;3.70;99.90;;;;;;6387891;23;20367;-72
2023/01/08 05:39:11;;;;;;;45.20;17.80;;;3.70;99.90;;;;;;6388405;23;20011;-70
2023/01/08 05:41:44;;;;;;;64.13;17.25;;;3.80;99.90;;;;;;6387663;23;20007;-72
2023/01/08 05:44:18;;;;;;;51.30;19.25;;;3.70;99.90;;;;;;6414085;23;20003;-70
2023/01/08 05:46:51;;;;;;;51.65;18.70;;;3.70;99.90;;;;;;6412587;23;20001;-72
2023/01/08 05:49:25;;;;;;;86.15;21.15;;;3.70;99.90;;;;;;6387725;23;20042;-72
2023/01/08 05:51:58;;;;;;;48.08;19.05;;;3.60;99.90;;;;;;6384455;23;20361;-69
2023/01/08 05:54:29;;;;;;;57.63;17.20;;;3.60;99.90;;;;;;6414153;23;20046;-72
2023/01/08 05:57:10;;;;;;;43.75;18.13;;;3.70;99.90;;;;;;6388276;23;20005;-69
2023/01/08 05:59:43;;;;;;;50.88;15.18;;;3.70;99.90;;;;;;6389048;23;20000;-68
2023/01/08 06:02:17;;;;;;;45.83;16.70;;;3.50;99.90;;;;;;6412265;22;20209;-69
2023/01/08 06:04:48;;;;;;;41.53;16.90;;;3.40;99.90;;;;;;6338860;23;20019;-71
2023/01/08 06:07:22;;;;;;;52.17;16.50;;;3.40;99.90;;;;;;6230089;23;20029;-68
2023/01/08 06:09:59;;;;;;;42.63;18.90;;;3.50;99.90;;;;;;6243142;23;20286;-68
2023/01/08 06:12:33;;;;;;;50.13;19.00;;;3.60;99.90;;;;;;6234296;23;20007;-69
2023/01/08 06:15:05;;;;;;;41.55;17.25;;;3.60;99.90;;;;;;6212043;23;20018;-70
2023/01/08 06:17:36;;;;;;;46.97;18.52;;;3.50;99.90;;;;;;6234054;23;20007;-69
2023/01/08 06:20:10;;;;;;;48.40;18.67;;;3.50;99.90;;;;;;6254970;23;20004;-65
2023/01/08 06:22:44;;;;;;;;;;;3.50;99.90;;;;;;6241503;23;20063;-70
2023/01/08 06:25:20;;;;;;;37.17;16.63;;;3.50;99.90;;;;;;6209227;23;19902;-68
2023/01/08 06:27:51;;;;;;;56.03;18.38;;;3.60;99.90;;;;;;6256137;23;20007;-68
2023/01/08 06:30:30;;;;;;;47.53;18.38;;;3.60;99.90;;;;;;6234391;23;20058;-67
2023/01/08 06:33:01;;;;;;;50.17;18.50;;;3.60;99.90;;;;;;6210486;23;20046;-69
2023/01/08 06:35:33;;;;;;;68.13;18.75;;;3.60;99.90;;;;;;6354341;23;20306;-72
2023/01/08 06:38:04;;;;;;;39.85;17.95;;;3.60;99.90;;;;;;6331840;23;20532;-69
2023/01/08 06:40:38;;;;;;;69.82;17.52;;;3.60;99.90;;;;;;6233855;23;19995;-69
2023/01/08 06:43:13;;;;;;;69.95;20.30;;;3.50;99.90;;;;;;6255870;23;20308;-69
2023/01/08 06:45:51;;;;;;;65.18;18.48;;;3.60;99.90;;;;;;6234732;23;20054;-69
2023/01/08 06:48:30;;;;;;;43.22;17.60;;;3.50;99.90;;;;;;6232486;23;20003;-70
2023/01/08 06:51:02;;;;;;;57.55;18.25;;;3.50;99.90;;;;;;6241242;23;19991;-75
2023/01/08 06:53:34;;;;;;;78.63;18.15;;;3.60;99.90;;;;;;6233756;23;20335;-71
2023/01/08 06:56:09;;;;;;;78.60;18.98;;;3.50;99.90;;;;;;6207717;23;20013;-69
2023/01/08 06:58:43;;;;;;;47.85;18.65;;;3.50;99.90;;;;;;6231835;23;20012;-68
2023/01/08 07:01:18;;;;;;;50.45;19.80;;;3.50;99.90;;;;;;6230973;23;20335;-70
2023/01/08 07:03:54;;;;;;;49.85;16.88;;;3.40;99.90;;;;;;6232785;23;20003;-69
2023/01/08 07:06:25;;;;;;;63.40;16.67;;;3.40;99.90;;;;;;6241942;23;20015;-69
2023/01/08 07:08:59;;;;;;;61.33;18.02;;;3.30;99.90;;;;;;6233667;23;20051;-68
2023/01/08 07:11:32;;;;;;;62.10;17.85;;;3.40;99.90;;;;;;6209977;23;19999;-70
2023/01/08 07:14:08;;;;;;;45.10;17.75;;;3.30;99.90;;;;;;6256403;23;20309;-72
2023/01/08 07:16:45;;;;;;;54.38;18.02;;;3.30;99.90;;;;;;6256065;23;20023;-71
2023/01/08 07:19:22;;;;;;;60.97;17.05;;;3.40;99.90;;;;;;6233756;23;19999;-67
2023/01/08 07:21:56;;;;;;;42.83;13.85;;;3.30;99.90;;;;;;6239866;23;20014;-71
2023/01/08 07:24:30;;;;;;;35.03;15.30;;;3.30;99.90;;;;;;6232838;23;20285;-72
2023/01/08 07:27:01;;;;;;;55.22;16.65;;;3.10;99.90;;;;;;6231737;23;20007;-72
2023/01/08 07:29:32;;;;;;;36.30;15.18;;;3.10;99.90;;;;;;6231252;23;20003;-69
2023/01/08 07:32:06;;;;;;;55.00;16.52;;;3.20;99.90;;;;;;6230696;23;19996;-70
2023/01/08 07:34:43;;;;;;;;;;;3.20;99.90;;;;;;6208492;23;20014;-69
2023/01/08 07:37:15;;;;;;;36.95;15.93;;;3.20;99.90;;;;;;6207194;23;19918;-69
2023/01/08 07:39:48;;;;;;;40.95;17.70;;;3.20;99.90;;;;;;6231388;23;20001;-70
2023/01/08 07:42:20;;;;;;;59.25;15.00;;;3.30;99.90;;;;;;6233399;23;20196;-70
2023/01/08 07:44:51;;;;;;;49.63;17.67;;;3.30;99.90;;;;;;6257431;23;20008;-69
2023/01/08 07:47:22;;;;;;;57.28;17.60;;;3.40;99.90;;;;;;6233240;23;20196;-71
2023/01/08 07:49:55;;;;;;;56.95;17.35;;;3.40;99.90;;;;;;6233395;23;20010;-69
2023/01/08 07:52:26;;;;;;;39.08;16.60;;;3.40;99.90;;;;;;6254188;23;19999;-70
2023/01/08 07:54:59;;;;;;;38.50;15.30;;;3.40;99.90;;;;;;6257332;23;19995;-73
2023/01/08 07:57:36;;;;;;;64.30;18.37;;;3.40;99.90;;;;;;6232348;23;20003;-71
2023/01/08 08:00:10;;;;;;;65.70;22.88;;;3.50;99.90;;;;;;6233555;23;19999;-70
2023/01/08 08:02:45;;;;;;;70.53;19.58;;;3.40;99.90;;;;;;6233542;23;20011;-67
2023/01/08 08:05:17;;;;;;;102.38;17.05;;;3.50;99.90;;;;;;6315655;23;20320;-70
2023/01/08 08:07:48;;;;;;;57.38;16.92;;;3.40;99.90;;;;;;6241145;23;20326;-69
2023/01/08 08:10:19;;;;;;;45.95;16.00;;;3.40;99.90;;;;;;6235283;23;20063;-71
2023/01/08 08:12:50;;;;;;;63.13;18.50;;;3.40;99.90;;;;;;6255982;23;20335;-71
2023/01/08 08:15:21;;;;;;;66.22;15.30;;;3.30;99.90;;;;;;6233458;23;20006;-69
2023/01/08 08:17:59;;;;;;;42.88;14.70;;;3.30;99.90;;;;;;6256533;23;20576;-73
2023/01/08 08:20:30;;;;;;;44.90;14.15;;;3.30;99.90;;;;;;6229015;23;19995;-69
2023/01/08 08:23:07;;;;;;;62.67;15.57;;;3.30;99.90;;;;;;6235052;23;20010;-70
2023/01/08 08:25:44;;;;;;;45.40;15.48;;;3.40;99.90;;;;;;6234009;23;20010;-69
2023/01/08 08:28:16;;;;;;;33.97;15.18;;;3.40;99.90;;;;;;6256856;23;19995;-71
2023/01/08 08:30:50;;;;;;;34.13;14.93;;;3.30;99.90;;;;;;6234349;23;20003;-72
2023/01/08 08:33:23;;;;;;;45.25;11.63;;;3.40;99.90;;;;;;6234219;23;20323;-71
2023/01/08 08:35:57;;;;;;;47.47;14.52;;;3.20;99.90;;;;;;6229261;23;20431;-71
2023/01/08 08:38:28;;;;;;;35.53;13.90;;;3.20;99.90;;;;;;6234655;23;20021;-74
2023/01/08 08:41:04;;;;;;;22.52;10.80;;;3.10;99.90;;;;;;6258360;23;20413;-70
2023/01/08 08:43:36;;;;;;;35.75;13.93;;;3.00;99.90;;;;;;6232907;23;20003;-70
2023/01/08 08:46:07;;;;;;;27.25;11.20;;;3.00;99.90;;;;;;6332938;23;20011;-70
2023/01/08 08:48:38;;;;;;;36.45;14.75;;;3.00;99.90;;;;;;6233293;23;20007;-70
2023/01/08 08:51:12;;;;;;;37.55;15.10;;;3.10;99.90;;;;;;6231795;23;20192;-70
2023/01/08 08:53:44;;;;;;;34.85;14.38;;;3.20;99.90;;;;;;6262595;23;19995;-71
2023/01/08 08:56:17;;;;;;;32.65;13.23;;;3.20;99.90;;;;;;6223391;23;20023;-69
2023/01/08 08:58:53;;;;;;;29.95;13.85;;;3.30;99.90;;;;;;6208818;23;20021;-71
2023/01/08 09:01:24;;;;;;;32.40;13.25;;;3.30;99.90;;;;;;6234588;23;20022;-72
2023/01/08 09:03:59;;;;;;;35.50;14.63;;;3.30;99.90;;;;;;6232874;23;20010;-72
2023/01/08 09:06:30;;;;;;;53.10;13.45;;;3.20;99.90;;;;;;6240769;23;20015;-72
2023/01/08 09:09:04;;;;;;;31.02;13.95;;;3.20;99.90;;;;;;6234131;23;20549;-70
2023/01/08 09:11:38;;;;;;;42.78;11.70;;;3.20;99.90;;;;;;6257361;23;20411;-74
2023/01/08 09:14:09;;;;;;;60.40;13.20;;;3.30;99.90;;;;;;6233071;23;19999;-70
2023/01/08 09:16:43;;;;;;;29.90;12.10;;;3.10;99.90;;;;;;6209198;23;20631;-72
2023/01/08 09:19:17;;;;;;;46.75;12.73;;;3.10;99.90;;;;;;6234607;23;20188;-69
2023/01/08 09:21:54;;;;;;;54.45;13.18;;;3.20;99.90;;;;;;6229027;23;20007;-70
2023/01/08 09:24:31;;;;;;;39.90;12.40;;;3.20;99.90;;;;;;6207732;23;20004;-71
2023/01/08 09:27:04;;;;;;;78.60;14.85;;;3.30;99.90;;;;;;6233179;23;19999;-71
2023/01/08 09:29:38;;;;;;;33.28;13.60;;;3.30;99.90;;;;;;6232746;23;20172;-72
2023/01/08 09:32:14;;;;;;;38.63;12.85;;;3.20;99.90;;;;;;6207348;23;20480;-69
2023/01/08 09:34:48;;;;;;;28.98;12.15;;;3.30;99.90;;;;;;6207966;23;20066;-69
2023/01/08 09:37:22;;;;;;;35.55;11.80;;;3.40;99.90;;;;;;6230210;23;20018;-69
2023/01/08 09:39:56;;;;;;;51.95;13.60;;;3.40;99.90;;;;;;6233679;23;20003;-68
2023/01/08 09:42:31;;;;;;;54.78;15.90;;;3.40;99.90;;;;;;6255971;23;20003;-69
2023/01/08 09:45:11;;;;;;;54.70;13.32;;;3.40;99.90;;;;;;6256992;23;20003;-73
2023/01/08 09:47:43;;;;;;;30.58;11.20;;;3.50;99.90;;;;;;6242337;23;20013;-70
2023/01/08 09:50:14;;;;;;;36.38;12.15;;;3.50;99.90;;;;;;6208071;23;20145;-67
2023/01/08 09:52:48;;;;;;;35.05;12.43;;;3.60;99.90;;;;;;6232663;23;20010;-70
2023/01/08 09:55:22;;;;;;;37.28;13.95;;;3.60;99.90;;;;;;6208540;23;20029;-69
2023/01/08 09:57:55;;;;;;;29.08;12.38;;;3.60;99.90;;;;;;6232401;23;20654;-69
2023/01/08 10:00:35;;;;;;;46.37;12.33;;;3.50;99.90;;;;;;6254772;23;20099;-71
2023/01/08 10:03:21;;;;;;;34.40;12.15;;;3.50;99.90;;;;;;6231654;23;20558;-69
2023/01/08 10:05:53;;;;;;;30.23;11.10;;;3.50;99.90;;;;;;6223913;23;20025;-68
2023/01/08 10:08:24;;;;;;;47.90;14.70;;;3.40;99.90;;;;;;6230294;23;20011;-67
2023/01/08 10:10:55;;;;;;;40.88;13.18;;;3.50;99.90;;;;;;6233547;23;20183;-65
2023/01/08 10:13:33;;;;;;;27.77;10.48;;;3.70;99.90;;;;;;6231009;23;20010;-69
2023/01/08 10:16:08;;;;;;;47.15;13.23;;;3.60;99.90;;;;;;6230915;23;20003;-69
2023/01/08 10:18:43;;;;;;;53.22;14.43;;;3.60;99.90;;;;;;6229079;23;20015;-68
2023/01/08 10:21:16;;;;;;;64.03;12.73;;;3.60;99.90;;;;;;6234033;23;20010;-69
2023/01/08 10:23:54;;;;;;;38.33;11.02;;;3.70;99.90;;;;;;6231753;23;20010;-69
2023/01/08 10:26:35;;;;;;;38.45;14.05;;;3.60;99.90;;;;;;6230402;23;20132;-67
2023/01/08 10:29:19;;;;;;;49.97;14.13;;;3.70;99.90;;;;;;6227599;23;20003;-69
2023/01/08 10:31:56;;;;;;;44.22;13.88;;;3.70;99.90;;;;;;6232462;23;19995;-68
2023/01/08 10:34:38;;;;;;;49.33;13.15;;;3.70;99.90;;;;;;6230363;23;20007;-69
2023/01/08 10:37:25;;;;;;;54.72;15.43;;;3.80;99.90;;;;;;6225935;23;20006;-68
2023/01/08 10:40:19;;;;;;;31.25;13.65;;;3.90;99.90;;;;;;6254402;23;19999;-67
2023/01/08 10:42:52;;;;;;;40.58;14.35;;;4.00;99.90;;;;;;6207834;23;20187;-69
2023/01/08 10:45:27;;;;;;;36.53;12.50;;;4.00;99.90;;;;;;6229609;23;19995;-68
2023/01/08 10:48:03;;;;;;;39.72;13.93;;;3.90;99.90;;;;;;6232354;23;20010;-68
2023/01/08 10:50:34;;;;;;;43.22;15.30;;;3.80;99.90;;;;;;6252241;23;19999;-69
2023/01/08 10:53:24;;;;;;;33.13;13.85;;;3.90;99.90;;;;;;6232334;23;20000;-70
2023/01/08 10:55:58;;;;;;;46.88;14.30;;;3.80;99.90;;;;;;6232605;23;20063;-69
2023/01/08 10:58:40;;;;;;;35.67;14.82;;;3.90;99.90;;;;;;6232935;23;20017;-70
2023/01/08 11:01:15;;;;;;;48.65;13.93;;;3.80;99.90;;;;;;6233063;23;20067;-69
2023/01/08 11:03:59;;;;;;;32.65;13.05;;;4.00;99.90;;;;;;6354960;23;20003;-70
2023/01/08 11:06:44;;;;;;;34.67;14.60;;;3.90;99.90;;;;;;6232906;23;20025;-69
2023/01/08 11:09:24;;;;;;;32.53;11.90;;;4.00;99.90;;;;;;6207494;23;20007;-70
2023/01/08 11:11:58;;;;;;;24.08;11.65;;;3.80;99.90;;;;;;6232927;23;20006;-69
2023/01/08 11:14:34;;;;;;;36.38;12.88;;;3.80;99.90;;;;;;6208414;23;20013;-71
2023/01/08 11:17:24;;;;;;;31.63;12.63;;;3.80;99.90;;;;;;6231123;23;20007;-68
2023/01/08 11:20:07;;;;;;;26.23;13.00;;;3.90;99.90;;;;;;6232825;23;20030;-69
2023/01/08 11:22:38;;;;;;;36.72;14.13;;;3.80;99.90;;;;;;6255898;23;20003;-70
2023/01/08 11:25:18;;;;;;;31.85;13.45;;;4.00;99.90;;;;;;6233266;23;20007;-68
2023/01/08 11:27:54;;;;;;;32.85;12.40;;;4.10;99.90;;;;;;6233737;23;20063;-67
2023/01/08 11:30:31;;;;;;;29.92;12.88;;;4.10;99.90;;;;;;6233931;23;20000;-68
2023/01/08 11:33:15;;;;;;;29.17;12.98;;;4.00;99.90;;;;;;6256627;23;20101;-70
2023/01/08 11:35:57;;;;;;;24.23;12.43;;;4.00;99.90;;;;;;6255705;23;20009;-69
2023/01/08 11:38:28;;;;;;;33.63;13.15;;;4.00;99.90;;;;;;6232944;23;20042;-69
2023/01/08 11:41:23;;;;;;;31.20;14.10;;;4.10;99.90;;;;;;6232220;23;20000;-71
2023/01/08 11:44:46;;;;;;;30.40;12.13;;;4.20;99.90;;;;;;6233721;23;20059;-69
2023/01/08 11:47:49;;;;;;;32.40;12.80;;;4.30;99.90;;;;;;6264609;23;20009;-71
2023/01/08 11:50:48;;;;;;;27.60;12.60;;;4.30;99.90;;;;;;6253561;23;20070;-72
2023/01/08 11:53:51;;;;;;;25.17;12.50;;;4.20;99.90;;;;;;6236314;23;20556;-68
2023/01/08 11:56:43;;;;;;;31.30;13.43;;;4.20;99.90;;;;;;6232143;23;20018;-69
2023/01/08 11:59:46;;;;;;;31.13;13.00;;;4.20;99.90;;;;;;6234156;23;20015;-69
2023/01/08 12:02:38;;;;;;;32.63;13.18;;;4.20;99.90;;;;;;6258528;23;20318;-71
2023/01/08 12:05:51;;;;;;;30.40;13.23;;;4.20;99.90;;;;;;6246231;23;20071;-68
2023/01/08 12:08:49;;;;;;;30.98;13.60;;;4.10;99.90;;;;;;6233307;23;19999;-72
2023/01/08 12:11:29;;;;;;;32.58;14.20;;;3.90;99.90;;;;;;6234623;23;20062;-70
2023/01/08 12:14:20;;;;;;;30.88;12.98;;;3.80;99.90;;;;;;6235000;23;20062;-73
2023/01/08 12:17:17;;;;;;;30.20;12.95;;;3.80;99.90;;;;;;6257740;23;19995;-69
2023/01/08 12:20:19;;;;;;;27.13;12.80;;;3.80;99.90;;;;;;6233310;23;20007;-73
2023/01/08 12:23:21;;;;;;;32.10;13.02;;;3.90;99.90;;;;;;6233103;23;20063;-69
2023/01/08 12:26:18;;;;;;;27.77;12.48;;;3.90;99.90;;;;;;6263868;23;20001;-72
2023/01/08 12:29:12;;;;;;;25.80;13.07;;;4.00;99.90;;;;;;6201912;23;20019;-68
2023/01/08 12:32:04;;;;;;;30.20;13.27;;;4.30;99.90;;;;;;6204927;23;20445;-72
2023/01/08 12:34:50;;;;;;;30.33;13.27;;;4.50;99.90;;;;;;6204346;23;20226;-70
2023/01/08 12:37:26;;;;;;;29.35;11.77;;;4.50;99.90;;;;;;6201298;23;20010;-71
2023/01/08 12:40:15;;;;;;;22.48;10.88;;;4.40;99.90;;;;;;6202803;23;19992;-72
2023/01/08 12:42:52;;;;;;;24.75;11.40;;;4.50;99.90;;;;;;6204314;23;20006;-70
2023/01/08 12:45:29;;;;;;;22.23;10.93;;;4.70;99.90;;;;;;6195903;23;20014;-69
2023/01/08 12:48:10;;;;;;;24.25;11.05;;;4.70;99.90;;;;;;6167447;23;20022;-72
2023/01/08 12:50:49;;;;;;;26.40;10.27;;;4.70;99.90;;;;;;6222849;23;20000;-70
2023/01/08 12:53:49;;;;;;;24.23;10.93;;;4.70;99.90;;;;;;6204678;23;20007;-70
2023/01/08 12:56:40;;;;;;;26.35;11.57;;;4.70;99.90;;;;;;6225821;23;19995;-70
2023/01/08 12:59:38;;;;;;;23.52;10.32;;;4.70;99.90;;;;;;6202189;23;20014;-71
2023/01/08 13:02:30;;;;;;;22.58;10.52;;;4.60;99.90;;;;;;6202427;23;20003;-73
2023/01/08 13:05:36;;;;;;;22.73;10.15;;;4.60;99.90;;;;;;6179979;23;20420;-70
2023/01/08 13:08:35;;;;;;;22.88;10.95;;;4.80;99.90;;;;;;6202919;23;20004;-70
2023/01/08 13:11:07;;;;;;;22.92;10.27;;;4.90;99.90;;;;;;6202412;23;20010;-69
2023/01/08 13:13:44;;;;;;;21.23;10.55;;;5.00;99.90;;;;;;6203306;23;20003;-71
2023/01/08 13:16:24;;;;;;;22.73;10.48;;;5.00;99.90;;;;;;6226968;23;20010;-69
2023/01/08 13:19:03;;;;;;;18.25;10.07;;;5.00;99.90;;;;;;6202815;23;20018;-69
2023/01/08 13:21:43;;;;;;;21.52;10.55;;;5.00;99.90;;;;;;6223501;23;20650;-69
2023/01/08 13:24:21;;;;;;;23.98;10.88;;;5.20;99.90;;;;;;6227336;23;20026;-69
2023/01/08 13:26:52;;;;;;;22.52;10.00;;;5.10;99.90;;;;;;6202706;23;20007;-70
2023/01/08 13:29:49;;;;;;;21.73;9.68;;;5.10;99.90;;;;;;6229216;23;20033;-70
2023/01/08 13:32:40;;;;;;;20.02;10.13;;;5.10;99.90;;;;;;6212548;23;20220;-71
2023/01/08 13:35:28;;;;;;;23.10;10.02;;;5.10;99.90;;;;;;6200890;23;20014;-72